sensor_id;sensor_type;location;lat;lon;timestamp;P1;durP1;ratioP1;P2;durP2;ratioP2
65206;SDS011;58477;48.072;11.970;2022-07-29T00:02:23;1.77;;;1.05;;
65206;SDS011;58477;48.072;11.970;2022-07-29T00:04:48;2.78;;;1.20;;
65206;SDS011;58477;48.072;11.970;2022-07-29T00:07:13;1.40;;;1.20;;
65206;SDS011;58477;48.072;11.970;2022-07-29T00:09:39;4.80;;;1.20;;
65206;SDS011;58477;48.072;11.970;2022-07-29T00:12:04;1.30;;;1.10;;
65206;SDS011;58477;48.072;11.970;2022-07-29T00:14:30;1.33;;;1.05;;
65206;SDS011;58477;48.072;11.970;2022-07-29T00:16:55;1.30;;;1.17;;
65206;SDS011;58477;48.072;11.970;2022-07-29T00:19:21;4.03;;;1.10;;
65206;SDS011;58477;48.072;11.970;2022-07-29T00:21:46;5.45;;;1.38;;
65206;SDS011;58477;48.072;11.970;2022-07-29T00:24:12;1.30;;;1.20;;
65206;SDS011;58477;48.072;11.970;2022-07-29T00:26:37;3.42;;;1.20;;
65206;SDS011;58477;48.072;11.970;2022-07-29T00:29:03;1.55;;;1.42;;
65206;SDS011;58477;48.072;11.970;2022-07-29T00:31:29;1.13;;;1.02;;
65206;SDS011;58477;48.072;11.970;2022-07-29T00:33:55;1.10;;;1.00;;
65206;SDS011;58477;48.072;11.970;2022-07-29T00:36:20;1.67;;;1.58;;
65206;SDS011;58477;48.072;11.970;2022-07-29T00:38:49;2.05;;;1.20;;
65206;SDS011;58477;48.072;11.970;2022-07-29T00:41:16;1.30;;;1.20;;
65206;SDS011;58477;48.072;11.970;2022-07-29T00:43:42;1.20;;;1.10;;
65206;SDS011;58477;48.072;11.970;2022-07-29T00:46:08;1.40;;;0.82;;
65206;SDS011;58477;48.072;11.970;2022-07-29T00:48:34;1.35;;;1.10;;
65206;SDS011;58477;48.072;11.970;2022-07-29T00:51:00;2.65;;;1.08;;
65206;SDS011;58477;48.072;11.970;2022-07-29T00:53:27;2.83;;;1.10;;
65206;SDS011;58477;48.072;11.970;2022-07-29T00:55:56;3.35;;;1.08;;
65206;SDS011;58477;48.072;11.970;2022-07-29T00:58:23;1.30;;;1.15;;
65206;SDS011;58477;48.072;11.970;2022-07-29T01:00:49;1.42;;;1.10;;
65206;SDS011;58477;48.072;11.970;2022-07-29T01:03:15;1.27;;;1.10;;
65206;SDS011;58477;48.072;11.970;2022-07-29T01:05:41;1.00;;;1.00;;
65206;SDS011;58477;48.072;11.970;2022-07-29T01:08:10;0.85;;;0.80;;
65206;SDS011;58477;48.072;11.970;2022-07-29T01:10:37;1.58;;;0.90;;
65206;SDS011;58477;48.072;11.970;2022-07-29T01:13:04;6.88;;;1.17;;
65206;SDS011;58477;48.072;11.970;2022-07-29T01:15:30;1.70;;;1.17;;
65206;SDS011;58477;48.072;11.970;2022-07-29T01:18:05;3.42;;;1.20;;
65206;SDS011;58477;48.072;11.970;2022-07-29T01:23:30;1.00;;;1.00;;
65206;SDS011;58477;48.072;11.970;2022-07-29T01:31:51;1.88;;;1.00;;
65206;SDS011;58477;48.072;11.970;2022-07-29T01:34:21;1.00;;;1.00;;
65206;SDS011;58477;48.072;11.970;2022-07-29T01:36:51;1.60;;;1.10;;
65206;SDS011;58477;48.072;11.970;2022-07-29T01:39:32;1.00;;;1.00;;
65206;SDS011;58477;48.072;11.970;2022-07-29T01:44:40;2.40;;;1.10;;
65206;SDS011;58477;48.072;11.970;2022-07-29T01:47:12;1.95;;;1.13;;
65206;SDS011;58477;48.072;11.970;2022-07-29T01:49:43;1.10;;;1.10;;
65206;SDS011;58477;48.072;11.970;2022-07-29T01:52:15;1.63;;;1.27;;
65206;SDS011;58477;48.072;11.970;2022-07-29T01:54:51;1.77;;;1.15;;
65206;SDS011;58477;48.072;11.970;2022-07-29T01:57:21;1.67;;;0.88;;
65206;SDS011;58477;48.072;11.970;2022-07-29T01:59:52;1.65;;;1.20;;
65206;SDS011;58477;48.072;11.970;2022-07-29T02:02:19;1.27;;;0.90;;
65206;SDS011;58477;48.072;11.970;2022-07-29T02:04:46;1.20;;;1.10;;
65206;SDS011;58477;48.072;11.970;2022-07-29T02:07:15;1.25;;;1.10;;
65206;SDS011;58477;48.072;11.970;2022-07-29T02:09:44;3.20;;;1.00;;
65206;SDS011;58477;48.072;11.970;2022-07-29T02:12:12;1.35;;;1.10;;
65206;SDS011;58477;48.072;11.970;2022-07-29T02:14:43;1.50;;;1.05;;
65206;SDS011;58477;48.072;11.970;2022-07-29T02:17:12;1.33;;;1.23;;
65206;SDS011;58477;48.072;11.970;2022-07-29T02:19:42;1.42;;;1.33;;
65206;SDS011;58477;48.072;11.970;2022-07-29T02:22:09;3.15;;;1.42;;
65206;SDS011;58477;48.072;11.970;2022-07-29T02:24:37;1.83;;;1.48;;
65206;SDS011;58477;48.072;11.970;2022-07-29T02:27:05;2.47;;;1.40;;
65206;SDS011;58477;48.072;11.970;2022-07-29T02:29:32;2.42;;;1.65;;
65206;SDS011;58477;48.072;11.970;2022-07-29T02:32:00;2.67;;;1.40;;
65206;SDS011;58477;48.072;11.970;2022-07-29T02:34:28;2.90;;;1.60;;
65206;SDS011;58477;48.072;11.970;2022-07-29T02:36:55;2.65;;;1.60;;
65206;SDS011;58477;48.072;11.970;2022-07-29T02:39:20;1.42;;;1.33;;
65206;SDS011;58477;48.072;11.970;2022-07-29T02:41:54;2.35;;;1.67;;
65206;SDS011;58477;48.072;11.970;2022-07-29T02:44:24;2.33;;;1.80;;
65206;SDS011;58477;48.072;11.970;2022-07-29T02:52:26;3.22;;;1.67;;
65206;SDS011;58477;48.072;11.970;2022-07-29T02:55:16;3.15;;;1.65;;
65206;SDS011;58477;48.072;11.970;2022-07-29T02:57:49;16.15;;;2.10;;
65206;SDS011;58477;48.072;11.970;2022-07-29T03:00:19;1.80;;;1.58;;
65206;SDS011;58477;48.072;11.970;2022-07-29T03:02:48;1.88;;;1.50;;
65206;SDS011;58477;48.072;11.970;2022-07-29T03:05:18;1.70;;;1.60;;
65206;SDS011;58477;48.072;11.970;2022-07-29T03:07:46;2.75;;;1.50;;
65206;SDS011;58477;48.072;11.970;2022-07-29T03:10:18;2.40;;;1.60;;
65206;SDS011;58477;48.072;11.970;2022-07-29T03:12:44;3.67;;;1.35;;
65206;SDS011;58477;48.072;11.970;2022-07-29T03:15:10;2.63;;;1.60;;
65206;SDS011;58477;48.072;11.970;2022-07-29T03:17:36;1.92;;;1.60;;
65206;SDS011;58477;48.072;11.970;2022-07-29T03:20:02;1.48;;;1.38;;
65206;SDS011;58477;48.072;11.970;2022-07-29T03:22:28;1.92;;;1.75;;
65206;SDS011;58477;48.072;11.970;2022-07-29T03:24:54;2.83;;;1.50;;
65206;SDS011;58477;48.072;11.970;2022-07-29T03:27:19;1.35;;;1.25;;
65206;SDS011;58477;48.072;11.970;2022-07-29T03:29:45;2.72;;;1.60;;
65206;SDS011;58477;48.072;11.970;2022-07-29T03:32:11;1.40;;;1.30;;
65206;SDS011;58477;48.072;11.970;2022-07-29T03:34:36;1.40;;;1.30;;
65206;SDS011;58477;48.072;11.970;2022-07-29T03:37:02;2.95;;;1.40;;
65206;SDS011;58477;48.072;11.970;2022-07-29T03:39:29;1.60;;;1.33;;
65206;SDS011;58477;48.072;11.970;2022-07-29T03:41:57;2.85;;;1.65;;
65206;SDS011;58477;48.072;11.970;2022-07-29T03:44:26;3.55;;;1.38;;
65206;SDS011;58477;48.072;11.970;2022-07-29T03:46:53;3.03;;;1.63;;
65206;SDS011;58477;48.072;11.970;2022-07-29T03:49:23;2.80;;;1.50;;
65206;SDS011;58477;48.072;11.970;2022-07-29T03:51:50;1.70;;;1.60;;
65206;SDS011;58477;48.072;11.970;2022-07-29T03:54:16;1.92;;;1.50;;
65206;SDS011;58477;48.072;11.970;2022-07-29T03:56:42;3.90;;;1.90;;
65206;SDS011;58477;48.072;11.970;2022-07-29T03:59:12;2.45;;;1.83;;
65206;SDS011;58477;48.072;11.970;2022-07-29T04:01:39;2.40;;;1.73;;
65206;SDS011;58477;48.072;11.970;2022-07-29T04:04:05;4.47;;;2.40;;
65206;SDS011;58477;48.072;11.970;2022-07-29T04:06:44;2.63;;;2.22;;
65206;SDS011;58477;48.072;11.970;2022-07-29T04:09:11;2.78;;;2.38;;
65206;SDS011;58477;48.072;11.970;2022-07-29T04:11:38;2.63;;;2.22;;
65206;SDS011;58477;48.072;11.970;2022-07-29T04:14:04;4.82;;;2.65;;
65206;SDS011;58477;48.072;11.970;2022-07-29T04:16:30;2.42;;;2.17;;
65206;SDS011;58477;48.072;11.970;2022-07-29T04:18:56;5.10;;;2.15;;
65206;SDS011;58477;48.072;11.970;2022-07-29T04:21:22;4.63;;;2.05;;
65206;SDS011;58477;48.072;11.970;2022-07-29T04:23:47;2.13;;;1.73;;
65206;SDS011;58477;48.072;11.970;2022-07-29T04:26:18;3.45;;;2.40;;
65206;SDS011;58477;48.072;11.970;2022-07-29T04:28:45;4.82;;;3.47;;
65206;SDS011;58477;48.072;11.970;2022-07-29T04:31:11;3.80;;;3.25;;
65206;SDS011;58477;48.072;11.970;2022-07-29T04:33:38;4.28;;;2.25;;
65206;SDS011;58477;48.072;11.970;2022-07-29T04:36:04;2.05;;;1.88;;
65206;SDS011;58477;48.072;11.970;2022-07-29T04:38:30;2.40;;;2.20;;
65206;SDS011;58477;48.072;11.970;2022-07-29T04:40:55;3.55;;;2.00;;
65206;SDS011;58477;48.072;11.970;2022-07-29T04:43:20;2.75;;;1.90;;
65206;SDS011;58477;48.072;11.970;2022-07-29T04:45:46;3.17;;;1.95;;
65206;SDS011;58477;48.072;11.970;2022-07-29T04:48:11;2.40;;;2.10;;
65206;SDS011;58477;48.072;11.970;2022-07-29T04:50:40;2.35;;;1.67;;
65206;SDS011;58477;48.072;11.970;2022-07-29T04:53:06;1.92;;;1.75;;
65206;SDS011;58477;48.072;11.970;2022-07-29T04:55:32;3.90;;;1.63;;
65206;SDS011;58477;48.072;11.970;2022-07-29T04:57:58;2.42;;;1.90;;
65206;SDS011;58477;48.072;11.970;2022-07-29T05:00:23;2.40;;;2.20;;
65206;SDS011;58477;48.072;11.970;2022-07-29T05:02:49;2.17;;;1.83;;
65206;SDS011;58477;48.072;11.970;2022-07-29T05:05:14;3.58;;;1.83;;
65206;SDS011;58477;48.072;11.970;2022-07-29T05:07:40;5.00;;;1.77;;
65206;SDS011;58477;48.072;11.970;2022-07-29T05:10:06;3.97;;;1.70;;
65206;SDS011;58477;48.072;11.970;2022-07-29T05:12:32;4.03;;;1.90;;
65206;SDS011;58477;48.072;11.970;2022-07-29T05:14:58;3.83;;;2.05;;
65206;SDS011;58477;48.072;11.970;2022-07-29T05:17:23;4.22;;;2.00;;
65206;SDS011;58477;48.072;11.970;2022-07-29T05:19:48;3.80;;;1.80;;
65206;SDS011;58477;48.072;11.970;2022-07-29T05:22:16;2.42;;;1.90;;
65206;SDS011;58477;48.072;11.970;2022-07-29T05:24:44;1.88;;;1.70;;
65206;SDS011;58477;48.072;11.970;2022-07-29T05:27:10;1.85;;;1.75;;
65206;SDS011;58477;48.072;11.970;2022-07-29T05:29:35;2.28;;;2.00;;
65206;SDS011;58477;48.072;11.970;2022-07-29T05:32:02;2.75;;;1.77;;
65206;SDS011;58477;48.072;11.970;2022-07-29T05:34:28;3.75;;;1.83;;
65206;SDS011;58477;48.072;11.970;2022-07-29T05:36:53;4.75;;;2.00;;
65206;SDS011;58477;48.072;11.970;2022-07-29T05:39:18;2.33;;;1.92;;
65206;SDS011;58477;48.072;11.970;2022-07-29T05:41:44;2.30;;;2.10;;
65206;SDS011;58477;48.072;11.970;2022-07-29T05:44:09;3.60;;;1.83;;
65206;SDS011;58477;48.072;11.970;2022-07-29T05:46:36;7.22;;;1.70;;
65206;SDS011;58477;48.072;11.970;2022-07-29T05:49:01;1.65;;;1.55;;
65206;SDS011;58477;48.072;11.970;2022-07-29T05:51:27;1.48;;;1.38;;
65206;SDS011;58477;48.072;11.970;2022-07-29T05:53:53;3.90;;;1.90;;
65206;SDS011;58477;48.072;11.970;2022-07-29T05:56:18;1.70;;;1.60;;
65206;SDS011;58477;48.072;11.970;2022-07-29T05:58:44;1.95;;;1.70;;
65206;SDS011;58477;48.072;11.970;2022-07-29T06:01:09;2.20;;;2.00;;
65206;SDS011;58477;48.072;11.970;2022-07-29T06:03:34;1.83;;;1.70;;
65206;SDS011;58477;48.072;11.970;2022-07-29T06:06:02;2.10;;;1.70;;
65206;SDS011;58477;48.072;11.970;2022-07-29T06:08:28;2.80;;;1.50;;
65206;SDS011;58477;48.072;11.970;2022-07-29T06:10:54;3.15;;;1.65;;
65206;SDS011;58477;48.072;11.970;2022-07-29T06:13:19;2.55;;;1.50;;
65206;SDS011;58477;48.072;11.970;2022-07-29T06:15:44;3.20;;;1.67;;
65206;SDS011;58477;48.072;11.970;2022-07-29T06:18:10;3.88;;;1.65;;
65206;SDS011;58477;48.072;11.970;2022-07-29T06:20:38;3.72;;;1.67;;
65206;SDS011;58477;48.072;11.970;2022-07-29T06:23:03;1.50;;;1.40;;
65206;SDS011;58477;48.072;11.970;2022-07-29T06:25:29;2.92;;;1.33;;
65206;SDS011;58477;48.072;11.970;2022-07-29T06:27:55;2.47;;;1.88;;
65206;SDS011;58477;48.072;11.970;2022-07-29T06:30:20;2.95;;;1.88;;
65206;SDS011;58477;48.072;11.970;2022-07-29T06:32:46;2.90;;;1.80;;
65206;SDS011;58477;48.072;11.970;2022-07-29T06:35:12;3.22;;;2.20;;
65206;SDS011;58477;48.072;11.970;2022-07-29T06:37:37;2.33;;;1.77;;
65206;SDS011;58477;48.072;11.970;2022-07-29T06:40:03;4.43;;;1.77;;
65206;SDS011;58477;48.072;11.970;2022-07-29T06:42:48;2.15;;;1.70;;
65206;SDS011;58477;48.072;11.970;2022-07-29T06:45:13;1.65;;;1.55;;
65206;SDS011;58477;48.072;11.970;2022-07-29T06:47:38;1.85;;;1.50;;
65206;SDS011;58477;48.072;11.970;2022-07-29T06:50:04;2.08;;;1.65;;
65206;SDS011;58477;48.072;11.970;2022-07-29T06:52:30;6.55;;;2.00;;
65206;SDS011;58477;48.072;11.970;2022-07-29T06:54:55;3.00;;;1.50;;
65206;SDS011;58477;48.072;11.970;2022-07-29T06:57:21;3.00;;;1.80;;
65206;SDS011;58477;48.072;11.970;2022-07-29T06:59:47;2.67;;;1.80;;
65206;SDS011;58477;48.072;11.970;2022-07-29T07:02:12;1.52;;;1.42;;
65206;SDS011;58477;48.072;11.970;2022-07-29T07:04:38;1.58;;;1.48;;
65206;SDS011;58477;48.072;11.970;2022-07-29T07:07:04;4.43;;;1.50;;
65206;SDS011;58477;48.072;11.970;2022-07-29T07:09:29;1.60;;;1.50;;
65206;SDS011;58477;48.072;11.970;2022-07-29T07:11:55;2.03;;;1.58;;
65206;SDS011;58477;48.072;11.970;2022-07-29T07:14:20;3.22;;;1.60;;
65206;SDS011;58477;48.072;11.970;2022-07-29T07:16:46;1.50;;;1.40;;
65206;SDS011;58477;48.072;11.970;2022-07-29T07:19:11;2.20;;;1.23;;
65206;SDS011;58477;48.072;11.970;2022-07-29T07:21:36;3.45;;;1.70;;
65206;SDS011;58477;48.072;11.970;2022-07-29T07:24:02;1.60;;;1.50;;
65206;SDS011;58477;48.072;11.970;2022-07-29T07:26:28;1.67;;;1.58;;
65206;SDS011;58477;48.072;11.970;2022-07-29T07:28:53;1.50;;;1.40;;
65206;SDS011;58477;48.072;11.970;2022-07-29T07:31:19;2.92;;;1.60;;
65206;SDS011;58477;48.072;11.970;2022-07-29T07:33:44;2.85;;;1.60;;
65206;SDS011;58477;48.072;11.970;2022-07-29T07:36:10;3.33;;;1.50;;
65206;SDS011;58477;48.072;11.970;2022-07-29T07:38:36;3.63;;;1.45;;
65206;SDS011;58477;48.072;11.970;2022-07-29T07:41:01;1.80;;;1.52;;
65206;SDS011;58477;48.072;11.970;2022-07-29T07:43:27;1.98;;;1.60;;
65206;SDS011;58477;48.072;11.970;2022-07-29T07:45:52;4.78;;;1.50;;
65206;SDS011;58477;48.072;11.970;2022-07-29T07:48:18;1.60;;;1.42;;
65206;SDS011;58477;48.072;11.970;2022-07-29T07:50:43;1.50;;;1.40;;
65206;SDS011;58477;48.072;11.970;2022-07-29T07:53:09;3.05;;;1.58;;
65206;SDS011;58477;48.072;11.970;2022-07-29T07:55:39;2.17;;;1.50;;
65206;SDS011;58477;48.072;11.970;2022-07-29T07:58:05;3.70;;;1.58;;
65206;SDS011;58477;48.072;11.970;2022-07-29T08:00:30;1.50;;;1.40;;
65206;SDS011;58477;48.072;11.970;2022-07-29T08:02:57;3.80;;;1.38;;
65206;SDS011;58477;48.072;11.970;2022-07-29T08:05:23;1.70;;;1.60;;
65206;SDS011;58477;48.072;11.970;2022-07-29T08:07:48;1.80;;;1.70;;
65206;SDS011;58477;48.072;11.970;2022-07-29T08:10:15;2.00;;;1.20;;
65206;SDS011;58477;48.072;11.970;2022-07-29T08:13:02;2.05;;;1.60;;
65206;SDS011;58477;48.072;11.970;2022-07-29T08:15:31;1.50;;;1.40;;
65206;SDS011;58477;48.072;11.970;2022-07-29T08:17:56;1.67;;;1.50;;
65206;SDS011;58477;48.072;11.970;2022-07-29T08:20:22;1.88;;;1.55;;
65206;SDS011;58477;48.072;11.970;2022-07-29T08:22:47;3.22;;;1.38;;
65206;SDS011;58477;48.072;11.970;2022-07-29T08:25:13;2.28;;;1.60;;
65206;SDS011;58477;48.072;11.970;2022-07-29T08:27:38;2.50;;;1.40;;
65206;SDS011;58477;48.072;11.970;2022-07-29T08:30:04;2.10;;;1.30;;
65206;SDS011;58477;48.072;11.970;2022-07-29T08:32:30;2.35;;;1.40;;
65206;SDS011;58477;48.072;11.970;2022-07-29T08:34:56;1.00;;;1.00;;
65206;SDS011;58477;48.072;11.970;2022-07-29T08:37:22;1.40;;;1.30;;
65206;SDS011;58477;48.072;11.970;2022-07-29T08:39:47;3.30;;;1.40;;
65206;SDS011;58477;48.072;11.970;2022-07-29T08:42:13;1.70;;;1.40;;
65206;SDS011;58477;48.072;11.970;2022-07-29T08:44:38;1.40;;;1.30;;
65206;SDS011;58477;48.072;11.970;2022-07-29T08:47:04;1.38;;;1.27;;
65206;SDS011;58477;48.072;11.970;2022-07-29T08:49:32;3.60;;;1.55;;
65206;SDS011;58477;48.072;11.970;2022-07-29T08:51:58;3.53;;;1.42;;
65206;SDS011;58477;48.072;11.970;2022-07-29T08:54:25;2.50;;;1.52;;
65206;SDS011;58477;48.072;11.970;2022-07-29T08:56:52;1.85;;;1.27;;
65206;SDS011;58477;48.072;11.970;2022-07-29T08:59:20;1.50;;;1.40;;
65206;SDS011;58477;48.072;11.970;2022-07-29T09:01:47;3.00;;;1.27;;
65206;SDS011;58477;48.072;11.970;2022-07-29T09:04:19;2.55;;;1.20;;
65206;SDS011;58477;48.072;11.970;2022-07-29T09:06:47;1.55;;;1.40;;
65206;SDS011;58477;48.072;11.970;2022-07-29T09:09:14;1.40;;;1.30;;
65206;SDS011;58477;48.072;11.970;2022-07-29T09:11:43;1.60;;;1.20;;
65206;SDS011;58477;48.072;11.970;2022-07-29T09:14:10;2.05;;;1.30;;
65206;SDS011;58477;48.072;11.970;2022-07-29T09:19:20;2.75;;;1.48;;
65206;SDS011;58477;48.072;11.970;2022-07-29T09:21:46;2.38;;;1.50;;
65206;SDS011;58477;48.072;11.970;2022-07-29T09:24:25;2.47;;;1.50;;
65206;SDS011;58477;48.072;11.970;2022-07-29T09:26:56;1.60;;;1.40;;
65206;SDS011;58477;48.072;11.970;2022-07-29T09:29:23;3.15;;;1.40;;
65206;SDS011;58477;48.072;11.970;2022-07-29T09:31:50;1.40;;;1.30;;
65206;SDS011;58477;48.072;11.970;2022-07-29T09:34:21;1.58;;;1.48;;
65206;SDS011;58477;48.072;11.970;2022-07-29T09:36:49;1.45;;;1.30;;
65206;SDS011;58477;48.072;11.970;2022-07-29T09:39:15;1.70;;;1.60;;
65206;SDS011;58477;48.072;11.970;2022-07-29T09:41:57;2.53;;;1.50;;
65206;SDS011;58477;48.072;11.970;2022-07-29T09:44:25;1.60;;;1.50;;
65206;SDS011;58477;48.072;11.970;2022-07-29T09:49:32;2.50;;;1.58;;
65206;SDS011;58477;48.072;11.970;2022-07-29T09:54:36;2.28;;;1.42;;
65206;SDS011;58477;48.072;11.970;2022-07-29T09:57:03;3.13;;;1.30;;
65206;SDS011;58477;48.072;11.970;2022-07-29T09:59:34;1.50;;;1.30;;
65206;SDS011;58477;48.072;11.970;2022-07-29T10:02:00;6.63;;;1.23;;
65206;SDS011;58477;48.072;11.970;2022-07-29T10:04:36;2.90;;;1.45;;
65206;SDS011;58477;48.072;11.970;2022-07-29T10:07:03;3.60;;;1.38;;
65206;SDS011;58477;48.072;11.970;2022-07-29T10:09:30;3.17;;;1.55;;
65206;SDS011;58477;48.072;11.970;2022-07-29T10:12:03;3.00;;;1.50;;
65206;SDS011;58477;48.072;11.970;2022-07-29T10:14:30;1.45;;;1.30;;
65206;SDS011;58477;48.072;11.970;2022-07-29T10:16:58;2.67;;;1.13;;
65206;SDS011;58477;48.072;11.970;2022-07-29T10:19:25;1.50;;;1.40;;
65206;SDS011;58477;48.072;11.970;2022-07-29T10:21:51;1.67;;;1.30;;
65206;SDS011;58477;48.072;11.970;2022-07-29T10:24:16;3.60;;;1.30;;
65206;SDS011;58477;48.072;11.970;2022-07-29T10:26:42;5.28;;;1.08;;
65206;SDS011;58477;48.072;11.970;2022-07-29T10:29:09;1.35;;;1.27;;
65206;SDS011;58477;48.072;11.970;2022-07-29T10:31:39;3.63;;;1.50;;
65206;SDS011;58477;48.072;11.970;2022-07-29T10:40:15;2.33;;;1.23;;
65206;SDS011;58477;48.072;11.970;2022-07-29T10:43:43;1.30;;;1.20;;
65206;SDS011;58477;48.072;11.970;2022-07-29T10:46:03;5.95;;;1.30;;
65206;SDS011;58477;48.072;11.970;2022-07-29T10:48:29;5.25;;;1.85;;
65206;SDS011;58477;48.072;11.970;2022-07-29T10:50:56;2.97;;;1.55;;
65206;SDS011;58477;48.072;11.970;2022-07-29T10:56:49;4.68;;;1.60;;
65206;SDS011;58477;48.072;11.970;2022-07-29T11:01:43;3.40;;;1.33;;
65206;SDS011;58477;48.072;11.970;2022-07-29T11:04:08;1.05;;;1.05;;
65206;SDS011;58477;48.072;11.970;2022-07-29T11:09:30;1.70;;;1.30;;
65206;SDS011;58477;48.072;11.970;2022-07-29T11:11:56;1.55;;;1.40;;
65206;SDS011;58477;48.072;11.970;2022-07-29T11:17:21;3.33;;;1.42;;
65206;SDS011;58477;48.072;11.970;2022-07-29T11:19:46;3.28;;;1.55;;
65206;SDS011;58477;48.072;11.970;2022-07-29T11:22:30;4.68;;;1.85;;
65206;SDS011;58477;48.072;11.970;2022-07-29T11:25:12;12.57;;;1.98;;
65206;SDS011;58477;48.072;11.970;2022-07-29T11:27:39;4.05;;;1.80;;
65206;SDS011;58477;48.072;11.970;2022-07-29T11:30:05;3.92;;;2.03;;
65206;SDS011;58477;48.072;11.970;2022-07-29T11:32:38;2.17;;;1.50;;
65206;SDS011;58477;48.072;11.970;2022-07-29T11:37:36;1.60;;;1.50;;
65206;SDS011;58477;48.072;11.970;2022-07-29T11:47:40;3.65;;;1.60;;
65206;SDS011;58477;48.072;11.970;2022-07-29T11:50:12;3.05;;;1.70;;
65206;SDS011;58477;48.072;11.970;2022-07-29T11:52:40;1.73;;;1.50;;
65206;SDS011;58477;48.072;11.970;2022-07-29T11:55:15;2.83;;;1.88;;
65206;SDS011;58477;48.072;11.970;2022-07-29T11:57:49;4.82;;;1.63;;
65206;SDS011;58477;48.072;11.970;2022-07-29T12:00:37;6.72;;;1.80;;
65206;SDS011;58477;48.072;11.970;2022-07-29T12:03:05;5.55;;;1.73;;
65206;SDS011;58477;48.072;11.970;2022-07-29T12:05:42;4.30;;;1.50;;
65206;SDS011;58477;48.072;11.970;2022-07-29T12:10:35;2.58;;;1.75;;
65206;SDS011;58477;48.072;11.970;2022-07-29T12:13:01;5.32;;;1.67;;
65206;SDS011;58477;48.072;11.970;2022-07-29T12:15:26;2.85;;;1.65;;
65206;SDS011;58477;48.072;11.970;2022-07-29T12:17:55;2.38;;;1.30;;
65206;SDS011;58477;48.072;11.970;2022-07-29T12:20:25;1.73;;;1.63;;
65206;SDS011;58477;48.072;11.970;2022-07-29T12:22:53;1.92;;;1.60;;
65206;SDS011;58477;48.072;11.970;2022-07-29T12:25:19;3.40;;;1.50;;
65206;SDS011;58477;48.072;11.970;2022-07-29T12:27:46;1.40;;;1.30;;
65206;SDS011;58477;48.072;11.970;2022-07-29T12:30:13;2.22;;;1.50;;
65206;SDS011;58477;48.072;11.970;2022-07-29T12:32:41;5.65;;;1.50;;
65206;SDS011;58477;48.072;11.970;2022-07-29T12:35:09;4.78;;;1.30;;
65206;SDS011;58477;48.072;11.970;2022-07-29T12:37:37;2.42;;;1.33;;
65206;SDS011;58477;48.072;11.970;2022-07-29T12:40:05;1.95;;;1.55;;
65206;SDS011;58477;48.072;11.970;2022-07-29T12:42:31;2.35;;;1.38;;
65206;SDS011;58477;48.072;11.970;2022-07-29T12:44:56;5.75;;;1.58;;
65206;SDS011;58477;48.072;11.970;2022-07-29T12:47:22;1.85;;;1.30;;
65206;SDS011;58477;48.072;11.970;2022-07-29T12:49:48;3.28;;;1.30;;
65206;SDS011;58477;48.072;11.970;2022-07-29T12:54:57;4.20;;;1.60;;
65206;SDS011;58477;48.072;11.970;2022-07-29T12:57:24;2.72;;;1.30;;
65206;SDS011;58477;48.072;11.970;2022-07-29T13:00:09;2.50;;;1.35;;
65206;SDS011;58477;48.072;11.970;2022-07-29T13:02:36;2.90;;;1.10;;
65206;SDS011;58477;48.072;11.970;2022-07-29T13:05:04;1.63;;;1.30;;
65206;SDS011;58477;48.072;11.970;2022-07-29T13:07:32;1.73;;;1.40;;
65206;SDS011;58477;48.072;11.970;2022-07-29T13:10:19;5.07;;;1.10;;
65206;SDS011;58477;48.072;11.970;2022-07-29T13:13:05;1.30;;;1.20;;
65206;SDS011;58477;48.072;11.970;2022-07-29T13:15:33;4.10;;;1.38;;
65206;SDS011;58477;48.072;11.970;2022-07-29T13:17:59;2.33;;;1.40;;
65206;SDS011;58477;48.072;11.970;2022-07-29T13:20:25;7.53;;;1.67;;
65206;SDS011;58477;48.072;11.970;2022-07-29T13:22:55;2.80;;;1.33;;
65206;SDS011;58477;48.072;11.970;2022-07-29T13:25:28;5.93;;;1.20;;
65206;SDS011;58477;48.072;11.970;2022-07-29T13:27:55;3.63;;;1.70;;
65206;SDS011;58477;48.072;11.970;2022-07-29T13:30:21;7.05;;;1.50;;
65206;SDS011;58477;48.072;11.970;2022-07-29T13:32:47;5.20;;;1.50;;
65206;SDS011;58477;48.072;11.970;2022-07-29T13:35:13;2.38;;;1.10;;
65206;SDS011;58477;48.072;11.970;2022-07-29T13:37:39;1.20;;;1.10;;
65206;SDS011;58477;48.072;11.970;2022-07-29T13:40:08;3.50;;;1.30;;
65206;SDS011;58477;48.072;11.970;2022-07-29T13:42:34;5.30;;;1.17;;
65206;SDS011;58477;48.072;11.970;2022-07-29T13:45:00;1.10;;;0.88;;
65206;SDS011;58477;48.072;11.970;2022-07-29T13:47:26;2.78;;;1.30;;
65206;SDS011;58477;48.072;11.970;2022-07-29T13:49:53;1.67;;;1.25;;
65206;SDS011;58477;48.072;11.970;2022-07-29T13:52:19;6.60;;;1.65;;
65206;SDS011;58477;48.072;11.970;2022-07-29T13:54:45;2.28;;;1.33;;
65206;SDS011;58477;48.072;11.970;2022-07-29T13:57:11;5.43;;;1.60;;
65206;SDS011;58477;48.072;11.970;2022-07-29T13:59:37;1.17;;;1.10;;
65206;SDS011;58477;48.072;11.970;2022-07-29T14:02:06;3.72;;;1.70;;
65206;SDS011;58477;48.072;11.970;2022-07-29T14:04:32;4.90;;;1.50;;
65206;SDS011;58477;48.072;11.970;2022-07-29T14:06:58;1.73;;;1.38;;
65206;SDS011;58477;48.072;11.970;2022-07-29T14:09:23;5.13;;;1.45;;
65206;SDS011;58477;48.072;11.970;2022-07-29T14:11:50;2.80;;;1.50;;
65206;SDS011;58477;48.072;11.970;2022-07-29T14:14:18;5.70;;;1.50;;
65206;SDS011;58477;48.072;11.970;2022-07-29T14:16:44;2.00;;;1.40;;
65206;SDS011;58477;48.072;11.970;2022-07-29T14:19:09;1.40;;;1.20;;
65206;SDS011;58477;48.072;11.970;2022-07-29T14:21:36;3.85;;;1.30;;
65206;SDS011;58477;48.072;11.970;2022-07-29T14:24:02;3.28;;;1.40;;
65206;SDS011;58477;48.072;11.970;2022-07-29T14:26:27;2.88;;;1.73;;
65206;SDS011;58477;48.072;11.970;2022-07-29T14:28:52;2.85;;;1.60;;
65206;SDS011;58477;48.072;11.970;2022-07-29T14:31:18;3.28;;;1.60;;
65206;SDS011;58477;48.072;11.970;2022-07-29T14:33:43;2.55;;;1.30;;
65206;SDS011;58477;48.072;11.970;2022-07-29T14:36:09;4.90;;;1.65;;
65206;SDS011;58477;48.072;11.970;2022-07-29T14:38:34;4.88;;;1.45;;
65206;SDS011;58477;48.072;11.970;2022-07-29T14:41:02;3.47;;;1.50;;
65206;SDS011;58477;48.072;11.970;2022-07-29T14:43:28;2.70;;;1.40;;
65206;SDS011;58477;48.072;11.970;2022-07-29T14:45:53;4.38;;;1.80;;
65206;SDS011;58477;48.072;11.970;2022-07-29T14:48:19;2.55;;;1.63;;
65206;SDS011;58477;48.072;11.970;2022-07-29T14:50:44;3.85;;;1.85;;
65206;SDS011;58477;48.072;11.970;2022-07-29T14:53:09;7.90;;;1.88;;
65206;SDS011;58477;48.072;11.970;2022-07-29T14:55:37;2.70;;;1.40;;
65206;SDS011;58477;48.072;11.970;2022-07-29T14:58:02;2.67;;;1.65;;
65206;SDS011;58477;48.072;11.970;2022-07-29T15:00:28;2.83;;;1.65;;
65206;SDS011;58477;48.072;11.970;2022-07-29T15:02:57;1.67;;;1.58;;
65206;SDS011;58477;48.072;11.970;2022-07-29T15:05:24;4.80;;;1.42;;
65206;SDS011;58477;48.072;11.970;2022-07-29T15:07:50;6.63;;;1.50;;
65206;SDS011;58477;48.072;11.970;2022-07-29T15:10:15;2.92;;;1.60;;
65206;SDS011;58477;48.072;11.970;2022-07-29T15:12:41;5.28;;;1.55;;
65206;SDS011;58477;48.072;11.970;2022-07-29T15:15:06;9.38;;;2.05;;
65206;SDS011;58477;48.072;11.970;2022-07-29T15:17:32;8.07;;;1.42;;
65206;SDS011;58477;48.072;11.970;2022-07-29T15:19:58;5.78;;;1.77;;
65206;SDS011;58477;48.072;11.970;2022-07-29T15:22:23;1.70;;;1.60;;
65206;SDS011;58477;48.072;11.970;2022-07-29T15:24:48;5.63;;;1.70;;
65206;SDS011;58477;48.072;11.970;2022-07-29T15:27:14;6.13;;;2.38;;
65206;SDS011;58477;48.072;11.970;2022-07-29T15:29:40;3.83;;;2.22;;
65206;SDS011;58477;48.072;11.970;2022-07-29T15:32:06;5.07;;;1.70;;
65206;SDS011;58477;48.072;11.970;2022-07-29T15:34:32;1.95;;;1.55;;